Time;durP1;ratioP1;P1;durP2;ratioP2;P2;SDS_P1;SDS_P2;PMS_P1;PMS_P2;Temp;Humidity;BMP_temperature;BMP_pressure;BME280_temperature;BME280_humidity;BME280_pressure;Samples;Min_cycle;Max_cycle;Signal;HPM_P1;HPM_P2
2021/12/22 00:00:30;;;;;;;;;81.75;61.00;;;;;2.15;62.95;102036.47;4907295;28;45465;-94
2021/12/22 00:02:56;;;;;;;;;79.25;57.25;;;;;2.18;63.39;102044.56;4901883;28;46990;-93
2021/12/22 00:05:28;;;;;;;;;84.00;61.25;;;;;2.17;62.46;102057.34;4915292;28;45549;-93
2021/12/22 00:07:54;;;;;;;;;69.25;54.50;;;;;2.10;63.00;102050.63;4918048;28;45423;-94
2021/12/22 00:10:21;;;;;;;;;65.50;53.25;;;;;2.18;63.33;102066.97;4910714;28;45564;-94
2021/12/22 00:12:49;;;;;;;;;62.75;50.00;;;;;2.14;62.88;102055.34;4906819;28;47255;-93
2021/12/22 00:15:15;;;;;;;;;56.25;46.25;;;;;2.04;62.83;102047.41;4915271;28;45590;-94
2021/12/22 00:17:41;;;;;;;;;63.75;49.00;;;;;1.96;63.04;102041.50;4899196;28;45483;-94
2021/12/22 00:20:09;;;;;;;;;62.25;48.75;;;;;2.04;63.25;102058.69;4897311;28;45576;-93
2021/12/22 00:22:35;;;;;;;;;62.50;46.25;;;;;1.80;63.61;102016.63;4902387;28;47213;-94
2021/12/22 00:25:00;;;;;;;;;65.00;50.00;;;;;2.05;63.29;102062.22;4912556;28;45568;-94
2021/12/22 00:27:26;;;;;;;;;63.75;48.75;;;;;1.76;64.00;102015.38;4917174;28;45327;-93
2021/12/22 00:29:52;;;;;;;;;51.50;43.00;;;;;1.88;63.21;102031.25;4903919;28;45380;-93
2021/12/22 00:32:19;;;;;;;;;53.00;44.75;;;;;1.83;63.53;102026.38;4899967;28;47225;-95
2021/12/22 00:34:51;;;;;;;;;47.25;41.00;;;;;1.71;63.26;102010.47;4890165;28;46768;-93
2021/12/22 00:37:22;;;;;;;;;47.25;40.50;;;;;1.80;63.56;102034.75;4908459;28;45499;-94
2021/12/22 00:39:49;;;;;;;;;45.00;39.75;;;;;1.56;63.85;101990.06;4916328;28;45533;-94
2021/12/22 00:42:15;;;;;;;;;42.25;36.25;;;;;1.85;64.36;102042.97;4903050;28;47942;-94
2021/12/22 00:44:42;;;;;;;;;45.25;38.50;;;;;1.70;64.29;102016.44;4887983;28;45327;-94
2021/12/22 00:47:08;;;;;;;;;48.75;41.75;;;;;1.93;64.11;102064.47;4887796;29;45344;-93
2021/12/22 00:49:33;;;;;;;;;46.50;41.50;;;;;1.74;63.94;102022.09;4915162;28;45303;-93
2021/12/22 00:51:59;;;;;;;;;47.25;39.75;;;;;1.92;63.66;102049.69;4915084;28;48258;-94
2021/12/22 00:54:24;;;;;;;;;48.50;40.00;;;;;1.67;64.13;102009.28;4905152;28;45833;-93
2021/12/22 00:56:50;;;;;;;;;51.75;39.25;;;;;1.75;63.94;102028.19;4902253;28;45479;-94
2021/12/22 00:59:18;;;;;;;;;56.75;44.25;;;;;1.76;63.85;102032.59;4898575;28;46874;-94
2021/12/22 01:01:45;;;;;;;;;46.25;40.75;;;;;1.59;63.63;102012.75;4896863;29;47842;-94
2021/12/22 01:04:11;;;;;;;;;47.75;41.25;;;;;1.66;63.49;102038.50;4899797;29;45403;-94
2021/12/22 01:06:37;;;;;;;;;49.00;41.50;;;;;1.64;63.69;102051.28;4907406;28;45406;-93
2021/12/22 01:09:04;;;;;;;;;40.25;39.75;;;;;1.45;63.87;102027.75;4917104;28;45683;-94
2021/12/22 01:11:30;;;;;;;;;43.75;38.75;;;;;1.47;64.47;102033.13;4911112;28;48690;-95
2021/12/22 01:13:55;;;;;;;;;49.25;38.75;;;;;1.39;64.04;102024.56;4913588;28;45494;-94
2021/12/22 01:16:21;;;;;;;;;44.50;40.25;;;;;1.38;64.43;102026.22;4907650;28;45474;-93
2021/12/22 01:18:47;;;;;;;;;41.75;36.75;;;;;1.56;64.51;102055.69;4895315;28;45566;-94
2021/12/22 01:21:19;;;;;;;;;41.00;36.00;;;;;1.65;64.40;102068.63;4915474;28;48435;-92
2021/12/22 01:24:03;;;;;;;;;41.50;35.50;;;;;1.58;64.19;102047.13;4903134;28;45381;-93
2021/12/22 01:26:31;;;;;;;;;40.00;34.50;;;;;1.50;64.39;102031.75;4900622;28;45527;-93
2021/12/22 01:28:57;;;;;;;;;43.00;36.25;;;;;1.54;63.97;102028.72;4905311;28;45708;-94
2021/12/22 01:31:22;;;;;;;;;40.25;33.75;;;;;1.46;64.26;102027.03;4897852;28;47274;-94
2021/12/22 01:33:48;;;;;;;;;38.00;30.00;;;;;1.30;64.82;102002.13;4908824;28;45913;-94
2021/12/22 01:36:14;;;;;;;;;41.00;35.50;;;;;1.32;64.61;101995.44;4901642;28;45599;-94
2021/12/22 01:38:39;;;;;;;;;40.00;32.50;;;;;1.50;64.44;102026.56;4917599;28;45378;-94
2021/12/22 01:41:04;;;;;;;;;42.75;37.00;;;;;1.38;64.51;102005.53;4889336;29;47127;-93
2021/12/22 01:43:30;;;;;;;;;33.25;29.75;;;;;1.41;64.38;102003.25;4906126;28;45895;-93
2021/12/22 01:51:43;;;;;;;;;42.00;36.25;;;;;1.37;64.68;102019.19;4914345;28;45599;-94
2021/12/22 01:54:24;;;;;;;;;44.00;36.50;;;;;1.46;64.79;102037.38;4890169;28;45472;-94
2021/12/22 01:56:51;;;;;;;;;43.00;37.25;;;;;1.37;64.91;102026.03;4901575;28;45397;-94
2021/12/22 01:59:20;;;;;;;;;42.75;37.25;;;;;1.25;65.03;102003.34;4898156;28;45539;-94
2021/12/22 02:01:46;;;;;;;;;44.25;34.75;;;;;1.22;64.83;101998.75;4905434;28;47496;-93
2021/12/22 02:04:13;;;;;;;;;42.50;34.75;;;;;1.23;64.77;101997.09;4893925;28;45425;-94
2021/12/22 02:06:43;;;;;;;;;46.00;38.75;;;;;1.42;64.76;102017.09;4906154;28;45552;-94
2021/12/22 02:09:11;;;;;;;;;48.00;35.75;;;;;1.43;64.96;102013.75;4886060;28;45500;-94
2021/12/22 02:11:37;;;;;;;;;48.50;40.00;;;;;1.51;64.74;102025.81;4886405;28;48065;-94
2021/12/22 02:14:05;;;;;;;;;33.75;32.75;;;;;1.46;64.97;102021.84;4895402;28;45605;-94
2021/12/22 02:16:35;;;;;;;;;45.00;36.50;;;;;1.36;64.92;101998.34;4899967;28;45652;-93
2021/12/22 02:19:03;;;;;;;;;47.25;35.50;;;;;1.47;65.37;102015.00;4914113;28;45443;-93
2021/12/22 02:21:33;;;;;;;;;45.25;37.75;;;;;1.41;65.15;101992.91;4910691;28;47176;-93
2021/12/22 02:23:59;;;;;;;;;41.00;35.00;;;;;1.39;64.98;101993.50;4900554;28;45901;-93
2021/12/22 02:26:34;;;;;;;;;42.75;35.75;;;;;1.37;64.68;101993.31;4900000;28;45346;-94
2021/12/22 02:29:04;;;;;;;;;40.75;29.75;;;;;1.54;64.62;102039.09;4905320;28;45640;-94
2021/12/22 02:31:37;;;;;;;;;55.50;38.25;;;;;1.59;64.91;102041.22;4886253;29;47353;-93
2021/12/22 02:34:03;;;;;;;;;45.75;34.25;;;;;1.53;64.92;102029.47;4892695;28;45467;-93
2021/12/22 02:36:34;;;;;;;;;43.00;38.50;;;;;1.48;64.68;102012.56;4894679;29;45617;-94
2021/12/22 02:39:00;;;;;;;;;36.75;35.00;;;;;1.47;64.85;102002.94;4883118;28;45318;-94
2021/12/22 02:41:29;;;;;;;;;38.25;31.75;;;;;1.51;64.71;102005.13;4898137;28;48144;-93
2021/12/22 02:43:58;;;;;;;;;49.25;36.00;;;;;1.64;64.91;102025.41;4916148;28;45677;-93
2021/12/22 02:46:30;;;;;;;;;42.00;34.50;;;;;1.55;65.03;102009.84;4908030;28;45516;-94
2021/12/22 02:48:57;;;;;;;;;48.75;37.25;;;;;1.55;64.79;101996.91;4911067;28;46709;-93
2021/12/22 02:51:23;;;;;;;;;39.75;32.00;;;;;1.80;64.57;102031.25;4898013;28;48479;-94
2021/12/22 02:57:06;;;;;;;;;42.25;30.50;;;;;1.52;64.67;101962.03;4820872;29;45538;-94
2021/12/22 02:59:50;;;;;;;;;35.75;31.75;;;;;1.61;64.49;101980.16;4806387;29;45674;-93
2021/12/22 03:02:41;;;;;;;;;39.25;35.75;;;;;1.69;64.29;102006.84;4806763;29;47354;-94
2021/12/22 03:05:05;;;;;;;;;42.25;33.25;;;;;1.68;64.27;102011.09;4820058;29;45428;-94
2021/12/22 03:07:31;;;;;;;;;42.75;36.25;;;;;1.54;64.08;101989.00;4803829;29;45468;-95
2021/12/22 03:10:04;;;;;;;;;41.25;37.00;;;;;1.55;64.18;101998.56;4802783;29;45493;-94
2021/12/22 03:12:33;;;;;;;;;45.50;37.25;;;;;1.63;64.17;102012.28;4804773;29;47468;-93
2021/12/22 03:14:59;;;;;;;;;36.25;33.75;;;;;1.36;64.35;101977.66;4821523;29;45784;-94
2021/12/22 03:17:24;;;;;;;;;35.00;33.50;;;;;1.41;64.21;101997.16;4822282;29;45512;-93
2021/12/22 03:19:50;;;;;;;;;45.25;36.00;;;;;1.34;64.17;101996.50;4820884;29;45407;-93
2021/12/22 03:22:19;;;;;;;;;40.75;36.50;;;;;1.43;64.61;102022.44;4821002;29;48370;-93
2021/12/22 03:24:47;;;;;;;;;46.00;37.75;;;;;1.37;64.76;102002.75;4821123;29;45667;-95
2021/12/22 03:27:12;;;;;;;;;41.25;35.25;;;;;1.30;64.98;101990.88;4834823;28;45442;-93
2021/12/22 03:29:39;;;;;;;;;47.50;37.75;;;;;1.32;65.17;101984.19;4932683;28;44845;-93
2021/12/22 03:32:09;;;;;;;;;52.00;34.00;;;;;1.55;65.05;102007.25;4929098;28;47012;-94
2021/12/22 03:34:34;;;;;;;;;48.25;41.50;;;;;1.64;64.78;102008.94;4936442;28;44880;-94
2021/12/22 03:37:00;;;;;;;;;53.25;39.75;;;;;1.49;64.93;101980.75;4919404;28;45569;-94
2021/12/22 03:39:27;;;;;;;;;35.50;30.50;;;;;1.69;64.64;101999.06;4899973;28;45522;-95
2021/12/22 03:41:53;;;;;;;;;42.75;31.50;;;;;1.67;64.71;101996.34;4914115;28;48214;-94
2021/12/22 03:44:18;;;;;;;;;39.50;32.75;;;;;1.59;64.18;101979.09;4900888;28;45613;-93
2021/12/22 03:46:44;;;;;;;;;38.75;34.00;;;;;1.84;64.50;102028.19;4898945;28;45566;-94
2021/12/22 03:49:12;;;;;;;;;39.50;34.00;;;;;1.77;64.26;102016.31;4911959;28;46099;-95
2021/12/22 03:51:38;;;;;;;;;32.50;28.75;;;;;1.65;63.94;101992.69;4895357;28;47282;-93
2021/12/22 03:54:06;;;;;;;;;46.00;36.00;;;;;1.58;64.20;101987.59;4912511;28;45945;-93
2021/12/22 03:56:31;;;;;;;;;57.25;39.00;;;;;1.61;64.26;101995.69;4912432;28;45512;-93
2021/12/22 03:58:56;;;;;;;;;43.75;37.25;;;;;1.67;63.43;102006.69;4887413;29;45600;-94
2021/12/22 04:01:22;;;;;;;;;51.75;40.00;;;;;1.62;63.90;102006.22;4910669;28;47059;-94
2021/12/22 04:03:51;;;;;;;;;41.75;34.75;;;;;1.53;64.17;101993.25;4913440;28;45586;-94
2021/12/22 04:06:17;;;;;;;;;41.50;34.75;;;;;1.55;64.26;101985.63;4914911;28;45536;-94
2021/12/22 04:08:42;;;;;;;;;44.00;41.00;;;;;1.53;64.37;101977.72;4899049;28;45448;-94
2021/12/22 04:11:07;;;;;;;;;43.00;30.75;;;;;1.55;64.30;101973.59;4900859;28;48034;-94
2021/12/22 04:13:33;;;;;;;;;47.75;36.00;;;;;1.53;64.12;101956.09;4917835;28;45730;-94
2021/12/22 04:15:58;;;;;;;;;39.50;32.25;;;;;1.52;63.92;101962.03;4913893;28;45549;-92
2021/12/22 04:18:24;;;;;;;;;40.00;37.75;;;;;1.59;64.42;101963.56;4916532;28;45445;-93
2021/12/22 04:20:49;;;;;;;;;43.25;35.00;;;;;1.76;64.28;101985.97;4902532;28;47215;-93
2021/12/22 04:23:15;;;;;;;;;57.25;44.00;;;;;1.65;64.10;101966.78;4918691;28;45409;-94
2021/12/22 04:25:42;;;;;;;;;43.25;36.75;;;;;1.79;63.79;101986.28;4915080;28;45518;-94
2021/12/22 04:28:09;;;;;;;;;38.50;31.75;;;;;1.87;63.70;102002.59;4910903;28;45577;-93
2021/12/22 04:30:38;;;;;;;;;46.75;35.75;;;;;1.65;63.93;101967.69;4915142;28;47325;-93
2021/12/22 04:33:04;;;;;;;;;41.50;34.50;;;;;1.81;63.75;101991.63;4887145;28;45515;-94
2021/12/22 04:35:29;;;;;;;;;44.50;35.75;;;;;1.73;63.78;101977.88;4899769;28;45386;-94
2021/12/22 04:37:55;;;;;;;;;41.50;36.00;;;;;1.76;63.67;101994.66;4897543;28;45536;-94
2021/12/22 04:40:20;;;;;;;;;37.25;29.50;;;;;1.77;63.81;102003.34;4912084;28;47147;-93
2021/12/22 04:42:46;;;;;;;;;33.00;31.25;;;;;1.63;63.57;101974.38;4912327;28;45963;-94
2021/12/22 04:45:12;;;;;;;;;45.25;35.75;;;;;1.66;63.46;101984.13;4904946;28;45759;-94
2021/12/22 04:47:38;;;;;;;;;45.50;34.50;;;;;1.66;63.45;101990.22;4905663;28;45597;-94
2021/12/22 04:50:14;;;;;;;;;34.50;30.00;;;;;1.76;63.21;101999.84;4898309;28;47259;-94
2021/12/22 04:52:54;;;;;;;;;40.75;36.00;;;;;1.64;62.98;101973.63;4917813;28;46152;-93
2021/12/22 04:55:21;;;;;;;;;28.00;25.25;;;;;1.71;63.78;101988.09;4897254;28;45609;-93
2021/12/22 04:57:46;;;;;;;;;31.50;29.00;;;;;1.85;63.15;102012.81;4912735;28;45682;-93
2021/12/22 05:00:14;;;;;;;;;45.50;34.75;;;;;1.56;63.62;101959.91;4911800;28;47929;-94
2021/12/22 05:02:40;;;;;;;;;45.50;33.75;;;;;1.80;63.44;102000.16;4904859;28;45537;-93
2021/12/22 05:05:06;;;;;;;;;35.50;30.75;;;;;1.67;63.15;101973.03;4896498;29;45486;-94
2021/12/22 05:07:31;;;;;;;;;48.25;35.00;;;;;1.70;63.31;101975.91;4891610;29;45482;-94
2021/12/22 05:09:57;;;;;;;;;36.00;31.00;;;;;1.67;63.02;101971.38;4906594;28;47205;-94
2021/12/22 05:12:22;;;;;;;;;47.00;36.00;;;;;1.64;62.59;101977.88;4904991;28;45623;-94
2021/12/22 05:14:50;;;;;;;;;43.25;32.00;;;;;1.58;62.97;101973.00;4914865;28;45398;-94
2021/12/22 05:20:02;;;;;;;;;41.25;34.50;;;;;1.41;63.47;101950.59;4916084;28;45433;-94
2021/12/22 05:22:28;;;;;;;;;42.75;32.75;;;;;1.44;63.61;101959.56;4901330;28;45501;-94
2021/12/22 05:24:54;;;;;;;;;42.75;35.75;;;;;1.45;63.43;101956.22;4901291;28;45600;-94
2021/12/22 05:27:19;;;;;;;;;40.75;35.75;;;;;1.51;63.67;101961.13;4903135;28;45417;-94
2021/12/22 05:29:44;;;;;;;;;42.50;30.75;;;;;1.60;63.55;101971.47;4914187;28;47156;-93
2021/12/22 05:32:10;;;;;;;;;36.25;32.00;;;;;1.75;63.68;101986.75;4902574;28;45425;-94
2021/12/22 05:34:35;;;;;;;;;43.25;35.50;;;;;1.65;63.52;101961.63;4917983;28;45320;-93
2021/12/22 05:37:01;;;;;;;;;43.25;32.75;;;;;1.71;63.51;101957.03;4910095;28;45279;-95
2021/12/22 05:39:27;;;;;;;;;37.50;28.25;;;;;1.80;63.23;101970.00;4899267;28;47050;-95
2021/12/22 05:41:52;;;;;;;;;45.25;37.25;;;;;1.81;63.10;101969.25;4915061;28;45707;-95
2021/12/22 05:44:18;;;;;;;;;48.00;42.50;;;;;1.76;63.40;101961.00;4889826;29;45458;-96
2021/12/22 05:46:43;;;;;;;;;41.50;30.25;;;;;1.81;63.13;101958.88;4897017;28;45429;-96
2021/12/22 05:49:08;;;;;;;;;36.00;32.25;;;;;1.83;62.85;101965.13;4896384;28;46972;-94
2021/12/22 05:51:34;;;;;;;;;41.25;34.75;;;;;1.94;63.04;101991.19;4912389;28;45677;-96
2021/12/22 05:54:00;;;;;;;;;43.50;34.00;;;;;1.83;62.97;101975.47;4904622;28;45488;-95
2021/12/22 05:56:28;;;;;;;;;38.75;28.75;;;;;1.65;63.21;101948.66;4890197;29;45569;-93
2021/12/22 05:58:54;;;;;;;;;43.50;35.25;;;;;1.87;63.15;101989.66;4905637;28;47444;-94
2021/12/22 06:01:19;;;;;;;;;36.50;33.00;;;;;1.99;62.93;102005.50;4900597;29;46429;-93
2021/12/22 06:03:45;;;;;;;;;37.75;33.25;;;;;1.93;62.99;101986.78;4931595;28;44795;-94
2021/12/22 06:06:11;;;;;;;;;42.75;32.75;;;;;1.87;63.01;101975.03;4914457;28;45416;-94
2021/12/22 06:08:39;;;;;;;;;43.00;39.50;;;;;1.77;62.94;101955.09;4899280;28;47313;-94
2021/12/22 06:11:04;;;;;;;;;37.50;35.00;;;;;1.83;62.35;101969.41;4887352;29;45526;-95
2021/12/22 06:13:30;;;;;;;;;41.00;31.25;;;;;1.78;62.82;101972.44;4894153;29;45435;-93
2021/12/22 06:15:55;;;;;;;;;35.75;29.25;;;;;1.61;62.42;101955.19;4907127;28;45539;-93
2021/12/22 06:18:21;;;;;;;;;44.75;40.25;;;;;1.72;62.68;101989.03;4905048;28;47046;-94
2021/12/22 06:20:47;;;;;;;;;39.00;32.50;;;;;1.67;62.77;101985.97;4887117;28;45721;-93
2021/12/22 06:23:12;;;;;;;;;33.50;26.50;;;;;1.53;62.63;101959.59;4909897;28;45558;-94
2021/12/22 06:25:37;;;;;;;;;35.25;29.50;;;;;1.48;62.89;101963.38;4911011;28;45717;-94
2021/12/22 06:28:04;;;;;;;;;33.00;25.50;;;;;1.48;62.60;101967.63;4894684;28;47173;-94
2021/12/22 06:30:29;;;;;;;;;42.50;34.00;;;;;1.49;62.66;101980.75;4906446;28;45348;-94
2021/12/22 06:32:55;;;;;;;;;40.50;32.00;;;;;1.60;62.89;101991.28;4901129;28;45542;-95
2021/12/22 06:35:21;;;;;;;;;40.75;34.50;;;;;1.48;62.93;101963.38;4898200;29;45952;-94
2021/12/22 06:37:47;;;;;;;;;40.25;35.00;;;;;1.58;62.51;101982.44;4895453;29;47176;-95
2021/12/22 06:40:13;;;;;;;;;40.75;32.50;;;;;1.52;62.44;101985.34;4897284;29;45474;-94
2021/12/22 06:42:40;;;;;;;;;32.50;29.75;;;;;1.51;62.64;101987.00;4905966;28;45403;-94
2021/12/22 06:45:07;;;;;;;;;25.25;21.50;;;;;1.58;62.74;102013.50;4920010;28;45410;-94
2021/12/22 06:47:33;;;;;;;;;49.00;36.75;;;;;1.38;63.02;101976.13;4905565;28;48179;-94
2021/12/22 06:49:58;;;;;;;;;42.25;32.50;;;;;1.42;63.25;101984.38;4904992;28;45455;-94
2021/12/22 06:52:24;;;;;;;;;40.00;35.25;;;;;1.51;62.89;101976.66;4913550;28;45378;-94
2021/12/22 06:54:51;;;;;;;;;44.50;37.25;;;;;1.56;63.02;101978.03;4915546;28;45481;-94
2021/12/22 06:57:20;;;;;;;;;51.25;37.00;;;;;1.85;62.79;102020.59;4911138;28;47422;-95
2021/12/22 06:59:46;;;;;;;;;35.75;30.75;;;;;1.75;63.01;101989.34;4903361;28;45403;-94
2021/12/22 07:02:12;;;;;;;;;43.75;33.00;;;;;1.86;63.03;101999.09;4889900;28;47158;-94
2021/12/22 07:04:37;;;;;;;;;41.75;30.25;;;;;1.75;62.85;101966.94;4914564;28;45546;-94
2021/12/22 07:07:03;;;;;;;;;29.75;27.00;;;;;1.76;62.76;101958.41;4909614;28;46834;-95
2021/12/22 07:09:28;;;;;;;;;41.00;31.50;;;;;2.00;62.11;101994.41;4912907;28;45516;-95
2021/12/22 07:11:54;;;;;;;;;38.50;31.00;;;;;1.79;62.37;101957.81;4911138;28;45409;-95
2021/12/22 07:14:20;;;;;;;;;37.00;30.25;;;;;1.90;62.13;101977.03;4929233;28;45513;-93
2021/12/22 07:16:45;;;;;;;;;39.75;29.75;;;;;1.89;62.18;101976.09;4936699;28;47049;-94
2021/12/22 07:19:12;;;;;;;;;41.50;31.25;;;;;2.04;62.40;102001.72;4931238;28;45301;-94
2021/12/22 07:21:44;;;;;;;;;41.00;33.50;;;;;1.96;62.17;101985.41;4917376;28;45412;-94
2021/12/22 07:24:10;;;;;;;;;48.75;40.00;;;;;1.89;62.23;101977.78;4899163;28;45605;-88
2021/12/22 07:26:35;;;;;;;;;39.75;33.25;;;;;1.95;61.98;101985.25;4904003;28;46375;-88
2021/12/22 07:29:00;;;;;;;;;35.00;32.75;;;;;1.97;62.06;101992.41;4909124;28;44770;-88
2021/12/22 07:31:26;;;;;;;;;41.00;34.50;;;;;1.99;62.30;102005.50;4909701;28;46907;-88
2021/12/22 07:34:00;;;;;;;;;47.50;39.75;;;;;2.07;61.64;102008.88;4914491;28;45497;-88
2021/12/22 07:36:25;;;;;;;;;40.00;33.75;;;;;1.88;61.73;101989.81;4912560;28;45359;-87
2021/12/22 07:38:58;;;;;;;;;45.75;32.25;;;;;1.93;61.62;102005.84;4896893;28;45631;-88
2021/12/22 07:41:24;;;;;;;;;41.50;30.00;;;;;1.89;61.60;101998.50;4902452;28;45476;-88
2021/12/22 07:43:49;;;;;;;;;39.50;34.75;;;;;1.86;61.81;101999.09;4903727;28;45654;-89
2021/12/22 07:46:15;;;;;;;;;47.75;31.75;;;;;1.85;61.65;101992.09;4900287;28;47052;-87
2021/12/22 07:48:40;;;;;;;;;38.00;33.25;;;;;1.87;61.53;102000.94;4900439;28;45516;-87
2021/12/22 07:51:06;;;;;;;;;36.00;28.75;;;;;1.93;61.51;102002.31;4896093;28;45609;-87
2021/12/22 07:53:31;;;;;;;;;52.00;33.75;;;;;1.93;61.77;101992.88;4900554;28;45334;-88
2021/12/22 07:55:56;;;;;;;;;48.75;38.50;;;;;1.96;61.78;102007.81;4910279;28;46528;-88
2021/12/22 07:58:23;;;;;;;;;36.00;27.25;;;;;2.03;61.44;102018.03;4908322;28;45334;-87
2021/12/22 08:00:49;;;;;;;;;39.50;35.00;;;;;2.00;61.23;102021.22;4904225;28;45554;-88
2021/12/22 08:03:15;;;;;;;;;36.25;32.50;;;;;2.00;61.36;102012.53;4880749;28;45518;-88
2021/12/22 08:05:41;;;;;;;;;44.25;35.25;;;;;2.03;61.12;102015.44;4895597;28;47577;-88
2021/12/22 08:08:07;;;;;;;;;40.00;33.75;;;;;2.04;61.03;102016.34;4882360;29;45908;-89
2021/12/22 08:10:33;;;;;;;;;40.25;30.50;;;;;2.09;61.21;102022.88;4889646;28;45357;-88
2021/12/22 08:12:59;;;;;;;;;48.00;39.75;;;;;2.06;60.71;102009.66;4896501;28;45639;-96
2021/12/22 08:15:24;;;;;;;;;38.25;33.00;;;;;2.04;61.21;102019.84;4915753;28;45470;-88
2021/12/22 08:17:50;;;;;;;;;41.50;35.75;;;;;1.97;60.96;102004.44;4913443;28;46017;-89
2021/12/22 08:20:16;;;;;;;;;46.25;37.00;;;;;1.91;61.10;101998.66;4895068;28;45478;-88
2021/12/22 08:22:41;;;;;;;;;45.25;37.25;;;;;1.85;61.44;101998.97;4887017;28;45584;-90
2021/12/22 08:25:07;;;;;;;;;49.00;40.75;;;;;1.95;61.32;102006.91;4893142;29;46987;-88
2021/12/22 08:27:34;;;;;;;;;42.50;34.75;;;;;2.01;61.54;102001.44;4897951;28;45427;-90
2021/12/22 08:30:00;;;;;;;;;39.75;33.00;;;;;2.03;61.51;102001.56;4900839;28;45731;-91
2021/12/22 08:32:25;;;;;;;;;41.75;39.25;;;;;2.10;61.17;102002.34;4892755;28;45626;-95
2021/12/22 08:34:55;;;;;;;;;43.25;34.75;;;;;2.12;61.14;101997.31;4910938;28;46998;-91
2021/12/22 08:40:06;;;;;;;;;45.50;37.00;;;;;2.20;60.74;101995.47;4911580;28;45619;-90
2021/12/22 08:42:31;;;;;;;;;48.00;39.25;;;;;2.15;61.10;101995.03;4902343;28;45340;-90
2021/12/22 08:44:57;;;;;;;;;47.50;37.25;;;;;2.18;61.60;101994.41;4897709;28;49094;-91
2021/12/22 08:47:22;;;;;;;;;44.25;38.25;;;;;2.25;61.17;101988.16;4894185;28;45758;-92
2021/12/22 08:49:48;;;;;;;;;44.50;36.00;;;;;2.32;60.45;101998.41;4899074;28;45409;-92
2021/12/22 08:52:13;;;;;;;;;38.75;34.50;;;;;2.36;61.06;101999.59;4917568;28;45474;-93
2021/12/22 08:54:39;;;;;;;;;49.00;37.50;;;;;2.36;60.98;101986.63;4907339;28;45564;-91
2021/12/22 08:57:05;;;;;;;;;48.00;33.75;;;;;2.39;60.62;101986.94;4902160;28;46488;-90
2021/12/22 08:59:30;;;;;;;;;52.75;35.75;;;;;2.34;59.83;101991.69;4895055;28;45561;-90
2021/12/22 09:01:57;;;;;;;;;43.75;37.00;;;;;2.30;60.54;101986.94;4897770;28;45399;-91
2021/12/22 09:04:22;;;;;;;;;40.75;36.00;;;;;2.28;60.61;101978.09;4912909;28;46670;-92
2021/12/22 09:06:50;;;;;;;;;38.75;34.00;;;;;2.34;60.71;101986.50;4903308;28;45612;-93
2021/12/22 09:09:16;;;;;;;;;40.25;30.50;;;;;2.45;60.22;101985.88;4900005;28;45570;-91
2021/12/22 09:11:42;;;;;;;;;40.75;34.50;;;;;2.47;60.85;101986.03;4918604;28;45464;-91
2021/12/22 09:14:08;;;;;;;;;44.25;37.00;;;;;2.55;60.34;101985.09;4899571;28;47508;-93
2021/12/22 09:16:35;;;;;;;;;39.75;33.25;;;;;2.61;60.29;101982.19;4913345;28;45366;-92
2021/12/22 09:19:02;;;;;;;;;45.00;36.00;;;;;2.70;59.99;101976.09;4893310;28;45437;-92
2021/12/22 09:21:27;;;;;;;;;37.75;31.75;;;;;2.69;60.17;101967.38;4911312;28;45735;-91
2021/12/22 09:23:52;;;;;;;;;42.00;36.50;;;;;2.83;59.61;101978.19;4918756;28;45469;-90
2021/12/22 09:26:18;;;;;;;;;44.25;32.00;;;;;2.78;60.07;101989.00;4885337;28;45352;-91
2021/12/22 09:28:44;;;;;;;;;36.50;32.25;;;;;2.81;60.03;101987.50;4892029;28;45404;-91
2021/12/22 09:31:09;;;;;;;;;43.00;36.25;;;;;2.86;59.59;101986.28;4902346;28;49857;-91
2021/12/22 09:33:36;;;;;;;;;41.75;34.50;;;;;2.89;60.07;101986.53;4912993;28;46379;-91
2021/12/22 09:36:04;;;;;;;;;42.25;32.25;;;;;2.90;59.74;101984.13;4894108;28;46466;-92
2021/12/22 09:38:30;;;;;;;;;40.00;30.75;;;;;2.97;59.61;101988.22;4906214;28;45591;-93
2021/12/22 09:40:55;;;;;;;;;44.75;31.50;;;;;2.97;59.19;101985.63;4914222;28;45627;-92
2021/12/22 09:43:21;;;;;;;;;38.75;30.25;;;;;2.94;58.97;101985.31;4913143;28;45579;-92
2021/12/22 09:45:52;;;;;;;;;40.50;36.25;;;;;3.01;58.92;101989.44;4911901;28;45581;-91
2021/12/22 09:53:28;;;;;;;;;41.00;36.25;;;;;3.07;58.93;101995.19;4917521;28;45401;-90
2021/12/22 09:55:54;;;;;;;;;41.75;38.25;;;;;3.10;59.25;102000.69;4888158;28;46589;-92
2021/12/22 09:58:21;;;;;;;;;45.25;38.75;;;;;3.17;58.98;102001.28;4910060;28;45808;-92
2021/12/22 10:00:48;;;;;;;;;49.25;37.50;;;;;3.23;59.34;102007.97;4906674;28;45476;-91
2021/12/22 10:03:14;;;;;;;;;53.25;41.00;;;;;3.26;59.04;102006.44;4905682;28;46228;-91
2021/12/22 10:05:42;;;;;;;;;48.75;39.00;;;;;3.25;58.65;101992.53;4893140;28;45446;-91
2021/12/22 10:08:14;;;;;;;;;47.75;36.25;;;;;3.30;58.82;101990.41;4886706;29;45603;-92
2021/12/22 10:10:47;;;;;;;;;42.25;36.00;;;;;3.31;58.90;101976.63;4898858;28;45787;-92
2021/12/22 10:13:14;;;;;;;;;49.75;37.00;;;;;3.45;58.64;101989.22;4915980;28;45355;-92
2021/12/22 10:15:40;;;;;;;;;46.75;38.00;;;;;3.50;58.12;101991.38;4898989;28;45363;-93
2021/12/22 10:18:11;;;;;;;;;51.00;42.25;;;;;3.57;58.40;101991.16;4913219;28;45492;-92
2021/12/22 10:20:37;;;;;;;;;53.00;41.75;;;;;3.66;58.71;101993.72;4901368;28;45421;-92
2021/12/22 10:23:20;;;;;;;;;53.25;38.75;;;;;3.81;58.23;101991.66;4915624;28;45435;-92
2021/12/22 10:25:57;;;;;;;;;54.50;38.00;;;;;3.95;57.96;101992.00;4895823;28;45729;-91
2021/12/22 10:28:24;;;;;;;;;40.50;34.75;;;;;4.01;58.31;101988.31;4914988;28;45516;-89
2021/12/22 10:30:55;;;;;;;;;48.00;37.75;;;;;4.09;56.56;101983.81;4914010;28;45754;-90
2021/12/22 10:33:24;;;;;;;;;51.00;38.25;;;;;4.10;56.68;101982.09;4903212;28;46758;-90
2021/12/22 10:35:53;;;;;;;;;49.00;41.25;;;;;4.07;57.46;101982.72;4914940;28;45505;-90
2021/12/22 10:38:22;;;;;;;;;47.00;36.75;;;;;4.10;56.76;101982.09;4893997;28;45518;-89
2021/12/22 10:41:08;;;;;;;;;47.25;36.75;;;;;4.06;56.05;101975.72;4895124;28;45537;-90
2021/12/22 10:43:41;;;;;;;;;52.00;40.75;;;;;4.01;57.14;101977.00;4903541;28;45605;-90
2021/12/22 10:46:07;;;;;;;;;45.25;40.25;;;;;3.99;57.26;101961.28;4909534;28;45538;-90
2021/12/22 10:51:33;;;;;;;;;46.25;39.50;;;;;4.13;57.30;101939.13;4908679;28;45416;-90
2021/12/22 10:54:05;;;;;;;;;51.50;42.50;;;;;4.18;57.41;101936.94;4896655;28;48540;-90
2021/12/22 10:56:37;;;;;;;;;46.50;36.00;;;;;4.30;57.58;101931.97;4915867;28;45380;-90
2021/12/22 10:59:14;;;;;;;;;55.00;40.25;;;;;4.49;56.81;101919.66;4906427;28;45572;-90
2021/12/22 11:01:53;;;;;;;;;49.00;39.75;;;;;4.62;56.38;101926.88;4912208;28;45677;-92
2021/12/22 11:04:25;;;;;;;;;59.00;46.50;;;;;4.57;56.33;101919.59;4911892;28;46293;-89
2021/12/22 11:06:53;;;;;;;;;46.25;38.75;;;;;4.65;56.27;101919.34;4890969;28;45476;-92
2021/12/22 11:09:20;;;;;;;;;52.00;42.75;;;;;4.70;56.69;101928.47;4905799;28;45723;-91
2021/12/22 11:11:56;;;;;;;;;58.50;43.50;;;;;4.70;55.56;101923.28;4911088;28;45469;-92
2021/12/22 11:14:23;;;;;;;;;59.00;44.50;;;;;4.67;56.11;101923.00;4913412;28;47471;-92
2021/12/22 11:16:59;;;;;;;;;58.50;43.75;;;;;4.61;55.60;101923.41;4907808;28;45391;-91
2021/12/22 11:19:30;;;;;;;;;50.75;40.00;;;;;4.63;55.75;101927.03;4888644;28;45452;-90
2021/12/22 11:22:04;;;;;;;;;55.75;41.00;;;;;4.58;55.93;101911.03;4914404;28;45496;-91
2021/12/22 11:24:33;;;;;;;;;51.50;42.50;;;;;4.57;55.80;101906.59;4907002;28;47243;-91
2021/12/22 11:26:58;;;;;;;;;45.00;39.25;;;;;4.61;55.21;101905.19;4884909;28;45781;-90
2021/12/22 11:29:25;;;;;;;;;52.50;40.50;;;;;4.67;55.97;101908.31;4909733;28;45417;-93
2021/12/22 11:31:51;;;;;;;;;54.50;44.00;;;;;4.68;56.05;101904.03;4902683;28;45487;-93
2021/12/22 11:34:35;;;;;;;;;56.50;42.00;;;;;4.69;55.35;101898.94;4917709;28;46565;-92
2021/12/22 11:37:07;;;;;;;;;57.50;43.75;;;;;4.70;56.46;101879.06;4893385;28;45363;-92
2021/12/22 11:39:33;;;;;;;;;49.00;41.75;;;;;4.83;56.17;101880.13;4902353;28;45455;-94